Time;durP1;ratioP1;P1;durP2;ratioP2;P2;SDS_P1;SDS_P2;PMS_P1;PMS_P2;Temp;Humidity;BMP_temperature;BMP_pressure;BME280_temperature;BME280_humidity;BME280_pressure;Samples;Min_cycle;Max_cycle;Signal;HPM_P1;HPM_P2
2023/04/30 00:00:07;;;;;;;6.87;6.13;;;11.60;95.20;;;;;;5026793;28;20450;-68
2023/04/30 00:02:35;;;;;;;8.30;7.00;;;11.50;95.30;;;;;;5016846;28;20472;-68
2023/04/30 00:05:02;;;;;;;7.63;6.90;;;11.50;95.50;;;;;;5000964;28;20486;-68
2023/04/30 00:07:29;;;;;;;8.43;7.53;;;11.60;95.60;;;;;;5007049;28;20453;-68
2023/04/30 00:09:56;;;;;;;8.10;7.13;;;11.50;95.30;;;;;;5007126;28;20505;-67
2023/04/30 00:12:23;;;;;;;8.20;7.27;;;11.60;95.30;;;;;;5006616;28;20759;-67
2023/04/30 00:14:50;;;;;;;8.30;7.40;;;11.50;95.40;;;;;;5007468;28;20450;-68
2023/04/30 00:17:17;;;;;;;8.07;7.27;;;11.50;95.30;;;;;;5006918;28;20457;-68
2023/04/30 00:19:45;;;;;;;8.50;7.40;;;11.50;95.20;;;;;;5007086;28;20842;-69
2023/04/30 00:22:12;;;;;;;8.67;7.77;;;11.60;95.20;;;;;;5006457;28;20457;-68
2023/04/30 00:24:39;;;;;;;10.73;7.97;;;11.50;95.40;;;;;;5006482;28;20496;-68
2023/04/30 00:27:05;;;;;;;8.63;7.57;;;11.50;95.50;;;;;;5006120;28;20446;-68
2023/04/30 00:29:32;;;;;;;8.33;7.53;;;11.50;95.60;;;;;;5002425;28;20491;-68
2023/04/30 00:31:59;;;;;;;9.00;8.10;;;11.50;95.60;;;;;;5005610;28;20457;-68
2023/04/30 00:34:26;;;;;;;8.57;7.57;;;11.50;95.50;;;;;;5004430;28;20509;-67
2023/04/30 00:36:54;;;;;;;8.40;7.60;;;11.40;95.50;;;;;;5011978;28;20972;-68
2023/04/30 00:39:21;;;;;;;8.63;7.90;;;11.40;95.40;;;;;;5031055;28;20527;-68
2023/04/30 00:41:48;;;;;;;9.90;8.60;;;11.40;95.10;;;;;;5028753;28;20453;-68
2023/04/30 00:44:15;;;;;;;9.80;8.80;;;11.40;95.10;;;;;;5008369;28;20490;-68
2023/04/30 00:46:41;;;;;;;9.13;7.80;;;11.40;95.20;;;;;;5005536;28;20458;-68
2023/04/30 00:49:08;;;;;;;9.63;8.60;;;11.40;95.10;;;;;;5009855;28;21130;-68
2023/04/30 00:51:35;;;;;;;8.50;7.67;;;11.40;95.20;;;;;;5010541;28;21251;-68
2023/04/30 00:54:04;;;;;;;9.07;7.87;;;11.40;95.20;;;;;;5008760;28;20454;-68
2023/04/30 00:56:31;;;;;;;9.47;8.20;;;11.40;95.00;;;;;;5011007;28;20463;-68
2023/04/30 00:58:59;;;;;;;9.43;7.67;;;11.40;95.00;;;;;;5010674;28;20455;-68
2023/04/30 01:01:27;;;;;;;9.33;8.20;;;11.40;95.00;;;;;;5004659;28;20446;-68
2023/04/30 01:03:54;;;;;;;10.07;9.00;;;11.30;95.00;;;;;;5008512;28;20524;-68
2023/04/30 01:06:21;;;;;;;10.30;8.30;;;11.40;95.10;;;;;;5008907;28;20485;-68
2023/04/30 01:08:48;;;;;;;9.67;8.70;;;11.30;95.00;;;;;;5012861;28;20973;-69
2023/04/30 01:11:26;;;;;;;11.77;9.20;;;11.30;94.60;;;;;;5012257;28;20453;-69
2023/04/30 01:13:59;;;;;;;10.03;9.10;;;11.30;94.50;;;;;;5010908;28;20468;-69
2023/04/30 01:16:30;;;;;;;9.57;8.53;;;11.30;94.40;;;;;;5012657;28;21233;-69
2023/04/30 01:19:02;;;;;;;9.63;8.67;;;11.30;94.40;;;;;;5012632;28;20461;-69
2023/04/30 01:21:32;;;;;;;10.27;9.27;;;11.30;94.70;;;;;;5012799;28;21115;-70
2023/04/30 01:24:33;;;;;;;10.47;9.50;;;11.20;94.90;;;;;;5011203;28;20983;-68
2023/04/30 01:27:12;;;;;;;11.70;9.27;;;11.20;94.70;;;;;;5001765;28;20531;-69
2023/04/30 01:29:42;;;;;;;12.70;9.63;;;11.20;94.90;;;;;;5012597;28;20478;-69
2023/04/30 01:32:10;;;;;;;12.30;10.07;;;11.20;94.90;;;;;;5012293;28;20448;-68
2023/04/30 01:34:37;;;;;;;13.00;11.00;;;11.20;95.00;;;;;;5011436;28;20474;-68
2023/04/30 01:37:14;;;;;;;11.13;10.03;;;11.10;94.60;;;;;;5012388;28;20951;-68
2023/04/30 01:40:01;;;;;;;12.73;10.17;;;11.20;94.60;;;;;;5012280;28;20466;-68
2023/04/30 01:42:40;;;;;;;12.07;10.33;;;11.10;94.60;;;;;;5011247;28;20448;-68
2023/04/30 01:45:32;;;;;;;13.23;9.77;;;11.10;94.50;;;;;;5011167;28;20588;-69
2023/04/30 01:48:12;;;;;;;11.03;9.87;;;11.10;94.60;;;;;;5012695;28;20453;-68
2023/04/30 01:50:47;;;;;;;12.37;10.40;;;11.10;94.60;;;;;;5012322;28;20836;-69
2023/04/30 01:53:20;;;;;;;13.33;11.50;;;11.10;94.50;;;;;;5011195;28;20480;-68
2023/04/30 01:55:52;;;;;;;13.20;11.73;;;11.10;94.50;;;;;;5012298;28;20984;-69
2023/04/30 01:58:22;;;;;;;13.43;12.03;;;11.00;94.50;;;;;;5012562;28;20456;-69
2023/04/30 02:00:51;;;;;;;12.67;11.37;;;11.00;94.80;;;;;;5012245;28;20466;-69
2023/04/30 02:03:18;;;;;;;13.17;11.50;;;11.00;94.90;;;;;;5010325;28;20970;-69
2023/04/30 02:05:45;;;;;;;16.10;11.30;;;10.90;94.80;;;;;;5012060;28;20500;-69
2023/04/30 02:08:11;;;;;;;12.67;10.57;;;11.00;94.90;;;;;;5011810;28;20458;-69
2023/04/30 02:10:38;;;;;;;15.30;12.40;;;10.90;94.90;;;;;;5005853;28;20464;-70
2023/04/30 02:13:05;;;;;;;15.53;11.47;;;10.90;94.70;;;;;;5009988;28;20467;-70
2023/04/30 02:15:32;;;;;;;14.67;11.33;;;10.90;94.60;;;;;;5011624;28;20448;-69
2023/04/30 02:18:00;;;;;;;14.00;10.90;;;10.90;94.90;;;;;;5011861;28;20444;-69
2023/04/30 02:20:27;;;;;;;12.13;10.83;;;10.90;94.70;;;;;;5005142;28;20458;-69
2023/04/30 02:22:54;;;;;;;14.13;11.50;;;10.90;94.80;;;;;;5009162;28;20479;-69
2023/04/30 02:25:20;;;;;;;14.27;10.40;;;10.80;94.90;;;;;;5005094;28;20483;-69
2023/04/30 02:27:49;;;;;;;12.13;10.83;;;10.80;94.80;;;;;;5011472;28;20453;-69
2023/04/30 02:30:16;;;;;;;13.63;10.90;;;10.80;95.00;;;;;;5007089;28;20555;-69
2023/04/30 02:32:43;;;;;;;13.50;11.17;;;10.80;95.00;;;;;;5003928;28;20991;-69
2023/04/30 02:35:11;;;;;;;12.70;10.90;;;10.80;94.70;;;;;;5011097;28;20441;-70
2023/04/30 02:37:38;;;;;;;13.40;10.83;;;10.80;94.90;;;;;;5011113;28;20947;-70
2023/04/30 02:40:06;;;;;;;13.67;11.23;;;10.80;94.90;;;;;;5010418;28;20455;-69
2023/04/30 02:42:33;;;;;;;11.67;10.53;;;10.70;94.90;;;;;;5006144;28;20891;-69
2023/04/30 02:45:00;;;;;;;15.10;13.40;;;10.70;94.80;;;;;;5011358;28;20492;-69
2023/04/30 02:47:27;;;;;;;13.83;11.90;;;10.80;94.80;;;;;;5010859;28;20455;-70
2023/04/30 02:49:53;;;;;;;14.23;12.70;;;10.80;94.70;;;;;;5011465;28;20479;-70
2023/04/30 02:52:22;;;;;;;13.23;11.83;;;10.80;95.00;;;;;;5010360;28;20456;-69
2023/04/30 02:54:49;;;;;;;14.60;12.07;;;10.70;94.90;;;;;;5001812;28;21180;-69
2023/04/30 02:57:16;;;;;;;19.43;12.70;;;10.70;95.00;;;;;;5010590;28;20460;-69
2023/04/30 02:59:44;;;;;;;15.40;12.50;;;10.70;95.20;;;;;;5010996;28;20820;-71
2023/04/30 03:02:12;;;;;;;15.90;12.20;;;10.70;95.10;;;;;;5007840;28;20460;-69
2023/04/30 03:04:39;;;;;;;13.40;11.67;;;10.70;95.30;;;;;;5006349;28;20499;-71
2023/04/30 03:07:06;;;;;;;15.97;14.20;;;10.70;95.40;;;;;;5011033;28;20447;-71
2023/04/30 03:09:34;;;;;;;13.27;11.87;;;10.60;95.40;;;;;;5004519;28;20456;-69
2023/04/30 03:12:01;;;;;;;13.90;12.40;;;10.60;95.60;;;;;;5009484;28;20452;-70
2023/04/30 03:14:28;;;;;;;14.77;12.93;;;10.50;95.60;;;;;;5004728;28;20460;-69
2023/04/30 03:16:55;;;;;;;14.23;11.23;;;10.50;95.80;;;;;;5008954;28;20498;-72
2023/04/30 03:19:24;;;;;;;14.07;12.57;;;10.50;95.90;;;;;;5004729;28;20460;-70
2023/04/30 03:21:51;;;;;;;13.83;12.37;;;10.40;96.80;;;;;;5009092;28;20535;-70
2023/04/30 03:24:17;;;;;;;14.83;12.00;;;10.40;97.50;;;;;;5009109;28;20477;-70
2023/04/30 03:26:46;;;;;;;15.50;12.80;;;10.30;97.30;;;;;;5010413;28;20454;-71
2023/04/30 03:29:13;;;;;;;14.60;11.93;;;10.30;97.10;;;;;;5010390;28;20451;-71
2023/04/30 03:31:39;;;;;;;13.27;11.97;;;10.20;97.40;;;;;;5010530;28;20447;-70
2023/04/30 03:34:06;;;;;;;14.57;13.10;;;10.40;97.10;;;;;;5008844;28;20523;-70
2023/04/30 03:36:33;;;;;;;13.10;11.73;;;10.40;96.80;;;;;;5010491;28;20449;-71
2023/04/30 03:39:01;;;;;;;14.10;12.63;;;10.40;97.10;;;;;;5010126;28;20468;-69
2023/04/30 03:41:27;;;;;;;12.80;11.53;;;10.30;97.50;;;;;;5010275;28;20456;-69
2023/04/30 03:43:56;;;;;;;13.60;12.20;;;10.40;98.20;;;;;;5008794;28;20474;-70
2023/04/30 03:46:23;;;;;;;17.47;13.23;;;10.40;98.50;;;;;;5010122;28;20484;-69
2023/04/30 03:48:49;;;;;;;13.70;11.60;;;10.40;97.80;;;;;;5010217;28;20511;-69
2023/04/30 03:51:17;;;;;;;11.83;10.73;;;10.30;98.10;;;;;;5010187;28;20813;-69
2023/04/30 03:53:44;;;;;;;13.77;12.33;;;10.30;98.60;;;;;;5008759;28;20578;-69
2023/04/30 03:56:11;;;;;;;14.13;11.97;;;10.40;97.80;;;;;;5009832;28;20449;-70
2023/04/30 03:58:38;;;;;;;14.80;12.73;;;10.40;97.10;;;;;;5010166;28;20446;-70
2023/04/30 04:01:06;;;;;;;14.70;13.20;;;10.40;96.80;;;;;;5009636;28;20822;-70
2023/04/30 04:03:35;;;;;;;14.37;12.13;;;10.40;96.50;;;;;;5009034;28;20475;-69
2023/04/30 04:06:03;;;;;;;13.57;11.93;;;10.50;96.40;;;;;;5009350;28;20488;-69
2023/04/30 04:08:30;;;;;;;14.30;12.47;;;10.50;96.10;;;;;;5009608;28;20881;-69
2023/04/30 04:10:57;;;;;;;15.10;13.60;;;10.50;95.90;;;;;;5010082;28;20815;-69
2023/04/30 04:13:23;;;;;;;15.00;13.40;;;10.50;96.00;;;;;;5008316;28;20474;-69
2023/04/30 04:15:50;;;;;;;14.50;12.50;;;10.50;96.10;;;;;;5010179;28;20541;-70
2023/04/30 04:18:18;;;;;;;13.70;12.30;;;10.50;96.10;;;;;;5009780;28;20454;-70
2023/04/30 04:20:45;;;;;;;15.17;13.57;;;10.50;96.50;;;;;;5009971;28;20455;-70
2023/04/30 04:23:12;;;;;;;13.43;12.07;;;10.40;96.40;;;;;;5008258;28;20478;-71
2023/04/30 04:25:40;;;;;;;14.97;11.63;;;10.40;97.20;;;;;;5009877;28;20867;-71
2023/04/30 04:28:07;;;;;;;17.03;13.30;;;10.60;96.90;;;;;;5010544;28;20422;-70
2023/04/30 04:30:35;;;;;;;15.83;12.43;;;10.60;95.70;;;;;;5009645;28;20449;-70
2023/04/30 04:33:02;;;;;;;13.80;12.33;;;10.60;96.00;;;;;;5008455;28;20485;-70
2023/04/30 04:35:30;;;;;;;13.40;12.00;;;10.60;95.60;;;;;;5009220;28;20536;-70
2023/04/30 04:37:57;;;;;;;13.10;11.80;;;10.70;95.30;;;;;;5009610;28;20453;-70
2023/04/30 04:40:24;;;;;;;16.00;13.30;;;10.70;95.30;;;;;;5009189;28;20468;-70
2023/04/30 04:42:51;;;;;;;16.07;14.40;;;10.70;95.50;;;;;;5008259;28;20477;-71
2023/04/30 04:45:19;;;;;;;15.67;14.07;;;10.60;95.30;;;;;;5009760;28;20865;-70
2023/04/30 04:47:46;;;;;;;15.03;13.00;;;10.60;95.80;;;;;;5009296;28;20473;-69
2023/04/30 04:50:13;;;;;;;16.03;14.43;;;10.60;95.50;;;;;;5009137;28;20537;-71
2023/04/30 04:52:41;;;;;;;15.33;13.73;;;10.60;95.50;;;;;;5008039;28;20453;-72
2023/04/30 04:55:10;;;;;;;14.83;13.30;;;10.60;95.40;;;;;;5009224;28;20459;-69
2023/04/30 04:57:37;;;;;;;14.70;13.13;;;10.60;95.60;;;;;;5009275;28;20453;-70
2023/04/30 05:00:06;;;;;;;16.23;14.53;;;10.60;95.30;;;;;;5009253;28;20460;-68
2023/04/30 05:02:33;;;;;;;15.13;13.30;;;10.70;95.40;;;;;;5007957;28;20449;-69
2023/04/30 05:05:01;;;;;;;18.47;13.80;;;10.70;95.30;;;;;;5008252;28;21021;-68
2023/04/30 05:07:28;;;;;;;15.67;13.87;;;10.70;95.30;;;;;;5009181;28;20519;-69
2023/04/30 05:09:57;;;;;;;14.53;13.10;;;10.70;95.60;;;;;;5009320;28;20508;-70
2023/04/30 05:12:24;;;;;;;16.03;13.47;;;10.70;95.70;;;;;;5008369;28;20479;-69
2023/04/30 05:14:51;;;;;;;15.97;14.00;;;10.70;95.50;;;;;;5008131;28;20445;-70
2023/04/30 05:17:18;;;;;;;14.90;13.40;;;10.70;95.70;;;;;;5008699;28;20461;-71
2023/04/30 05:19:46;;;;;;;14.57;13.00;;;10.80;95.60;;;;;;5008938;28;20448;-70
2023/04/30 05:22:13;;;;;;;15.90;14.07;;;10.80;95.40;;;;;;5023156;28;20451;-70
2023/04/30 05:24:40;;;;;;;14.67;13.10;;;10.90;95.40;;;;;;5030976;28;20472;-69
2023/04/30 05:27:08;;;;;;;14.47;13.07;;;11.00;95.60;;;;;;5031783;28;20880;-71
2023/04/30 05:29:35;;;;;;;18.07;12.97;;;11.00;95.20;;;;;;5031372;28;20459;-69
2023/04/30 05:32:02;;;;;;;13.80;12.37;;;11.10;95.40;;;;;;5030247;28;20453;-71
2023/04/30 05:34:29;;;;;;;16.20;14.30;;;11.30;95.20;;;;;;5030849;28;20464;-70
2023/04/30 05:36:56;;;;;;;14.03;12.63;;;11.40;94.50;;;;;;5031911;28;20450;-68
2023/04/30 05:39:22;;;;;;;14.53;13.10;;;11.50;93.80;;;;;;5032062;28;20456;-69
2023/04/30 05:41:49;;;;;;;14.20;12.80;;;11.50;94.20;;;;;;5032731;28;20543;-69
2023/04/30 05:44:17;;;;;;;13.93;12.47;;;11.60;94.10;;;;;;5030787;28;20544;-68
2023/04/30 05:46:44;;;;;;;14.00;12.60;;;11.70;93.60;;;;;;5032332;28;20484;-68
2023/04/30 05:49:11;;;;;;;14.13;12.63;;;11.90;93.60;;;;;;5030836;28;20446;-69
2023/04/30 05:51:38;;;;;;;13.20;12.00;;;11.90;94.00;;;;;;5031921;28;20853;-67
2023/04/30 05:54:04;;;;;;;13.73;12.33;;;12.00;92.90;;;;;;5029269;28;20475;-70
2023/04/30 05:56:31;;;;;;;14.70;13.20;;;12.10;92.40;;;;;;5031624;28;20963;-70
2023/04/30 05:58:58;;;;;;;14.03;12.63;;;12.10;92.30;;;;;;5031928;28;20449;-70
2023/04/30 06:01:28;;;;;;;14.67;13.17;;;12.20;92.40;;;;;;5031494;28;20465;-70
2023/04/30 06:03:54;;;;;;;13.17;11.33;;;12.30;91.50;;;;;;5030275;28;20858;-69
2023/04/30 06:06:21;;;;;;;14.23;12.83;;;12.30;92.20;;;;;;5030450;28;20488;-67
2023/04/30 06:08:48;;;;;;;13.80;12.40;;;12.50;91.80;;;;;;5031608;28;20825;-69
2023/04/30 06:11:15;;;;;;;13.67;12.33;;;12.60;90.90;;;;;;5016193;28;20464;-70
2023/04/30 06:13:42;;;;;;;14.07;12.57;;;12.70;91.90;;;;;;5003208;28;20485;-69
2023/04/30 06:16:09;;;;;;;14.03;12.67;;;13.00;90.30;;;;;;5011435;28;20904;-68
2023/04/30 06:18:37;;;;;;;12.23;11.00;;;13.00;89.30;;;;;;5011202;28;20447;-69
2023/04/30 06:21:04;;;;;;;13.17;11.97;;;13.10;89.00;;;;;;5010765;28;20442;-68
2023/04/30 06:23:31;;;;;;;13.50;12.10;;;13.40;87.40;;;;;;5009872;28;20471;-69
2023/04/30 06:25:57;;;;;;;12.97;11.67;;;13.40;88.30;;;;;;5006568;28;20965;-69
2023/04/30 06:28:24;;;;;;;13.50;12.30;;;13.50;86.40;;;;;;5001193;28;20491;-69
2023/04/30 06:30:53;;;;;;;12.53;11.10;;;13.70;89.30;;;;;;5007690;28;20446;-69
2023/04/30 06:33:19;;;;;;;12.60;11.40;;;14.00;86.60;;;;;;5008196;28;20474;-69
2023/04/30 06:35:49;;;;;;;13.20;12.03;;;13.80;81.50;;;;;;5007716;28;20445;-69
2023/04/30 06:38:16;;;;;;;13.23;12.03;;;13.90;84.40;;;;;;5009486;28;20453;-69
2023/04/30 06:40:43;;;;;;;11.77;10.57;;;13.90;85.30;;;;;;5009423;28;20555;-68
2023/04/30 06:43:10;;;;;;;10.83;9.90;;;13.90;85.50;;;;;;5009246;28;20466;-68
2023/04/30 06:45:37;;;;;;;13.40;10.90;;;14.00;86.30;;;;;;5008825;28;20621;-68
2023/04/30 06:48:05;;;;;;;13.00;11.80;;;14.00;83.20;;;;;;5009819;28;20458;-68
2023/04/30 06:50:31;;;;;;;11.90;10.80;;;14.00;83.70;;;;;;5009890;28;20801;-69
2023/04/30 06:53:00;;;;;;;11.57;10.50;;;14.10;82.90;;;;;;5008313;28;20472;-69
2023/04/30 06:55:26;;;;;;;11.87;10.87;;;14.10;84.20;;;;;;5009966;28;20489;-69
2023/04/30 06:57:54;;;;;;;11.90;10.70;;;14.10;79.70;;;;;;5010512;28;20450;-68
2023/04/30 07:00:21;;;;;;;12.80;11.60;;;13.90;82.10;;;;;;5010707;28;20488;-68
2023/04/30 07:02:50;;;;;;;13.77;11.70;;;14.10;81.90;;;;;;5008475;28;20467;-68
2023/04/30 07:05:17;;;;;;;10.97;9.97;;;14.40;82.90;;;;;;5008855;28;20469;-68
2023/04/30 07:07:44;;;;;;;11.00;10.00;;;14.70;78.80;;;;;;5009574;28;20988;-68
2023/04/30 07:10:12;;;;;;;10.13;8.93;;;14.90;76.30;;;;;;5005991;28;20477;-73
2023/04/30 07:12:39;;;;;;;9.03;8.23;;;14.90;74.80;;;;;;4999055;28;20451;-71
2023/04/30 07:15:07;;;;;;;8.60;7.90;;;14.80;72.50;;;;;;5008726;28;21032;-68
2023/04/30 07:17:34;;;;;;;10.70;9.80;;;14.80;75.20;;;;;;5009449;28;20444;-68
2023/04/30 07:20:00;;;;;;;10.67;9.67;;;14.90;74.10;;;;;;5008928;28;20443;-68
2023/04/30 07:22:27;;;;;;;10.00;9.10;;;14.80;73.80;;;;;;4995562;28;20446;-70
2023/04/30 07:24:55;;;;;;;10.60;9.70;;;14.70;71.70;;;;;;5004963;28;20447;-67
2023/04/30 07:27:23;;;;;;;12.60;8.50;;;14.60;75.40;;;;;;5006658;28;20481;-68
2023/04/30 07:29:51;;;;;;;9.93;9.03;;;14.60;76.00;;;;;;5002832;28;20847;-68
2023/04/30 07:32:18;;;;;;;9.13;8.23;;;14.60;73.80;;;;;;5005206;28;20450;-68
2023/04/30 07:34:45;;;;;;;8.63;7.83;;;14.60;76.50;;;;;;5009642;28;20486;-68
2023/04/30 07:37:12;;;;;;;9.47;8.60;;;14.80;75.40;;;;;;5010381;28;20442;-69
2023/04/30 07:39:39;;;;;;;8.23;7.53;;;15.10;73.20;;;;;;5008947;28;20512;-68
2023/04/30 07:42:06;;;;;;;8.90;8.00;;;15.30;72.70;;;;;;5009193;28;20452;-69
2023/04/30 07:44:34;;;;;;;8.90;8.20;;;15.50;72.80;;;;;;5009283;28;20479;-68
2023/04/30 07:47:01;;;;;;;8.00;7.30;;;15.40;68.70;;;;;;5010558;28;20495;-69
2023/04/30 07:49:28;;;;;;;8.73;8.03;;;15.50;68.20;;;;;;5010235;28;20493;-69
2023/04/30 07:51:55;;;;;;;8.80;8.10;;;15.60;67.80;;;;;;5010428;28;20448;-69
2023/04/30 07:54:22;;;;;;;7.47;6.77;;;15.60;68.40;;;;;;5009208;28;21006;-69
2023/04/30 07:56:49;;;;;;;8.57;7.70;;;15.80;66.40;;;;;;5004253;28;20456;-69
2023/04/30 07:59:16;;;;;;;7.57;6.87;;;15.70;68.60;;;;;;5009757;28;20972;-69
2023/04/30 08:01:44;;;;;;;8.07;7.38;;;15.60;64.30;;;;;;5009479;28;20505;-69
2023/04/30 08:04:11;;;;;;;9.70;8.90;;;15.80;67.70;;;;;;5009054;28;20599;-69
2023/04/30 08:06:38;;;;;;;6.93;6.33;;;15.80;64.70;;;;;;5010050;28;20491;-69
2023/04/30 08:09:05;;;;;;;7.37;6.67;;;15.80;64.20;;;;;;5009995;28;20961;-69
2023/04/30 08:11:32;;;;;;;7.43;6.67;;;16.00;65.20;;;;;;5009853;28;20483;-70
2023/04/30 08:13:59;;;;;;;8.43;7.73;;;16.10;62.70;;;;;;5008812;28;20576;-70
2023/04/30 08:16:25;;;;;;;8.40;7.70;;;16.20;64.00;;;;;;5010159;28;20443;-70
2023/04/30 08:18:56;;;;;;;7.90;7.30;;;16.10;65.50;;;;;;5010235;28;20454;-69
2023/04/30 08:21:23;;;;;;;7.97;7.20;;;16.20;66.60;;;;;;5009817;28;20451;-69
2023/04/30 08:23:50;;;;;;;7.80;7.00;;;16.10;62.40;;;;;;5008689;28;20481;-69
2023/04/30 08:26:17;;;;;;;7.93;6.90;;;16.10;65.20;;;;;;5009699;28;20485;-69
2023/04/30 08:28:44;;;;;;;8.03;7.23;;;16.40;68.00;;;;;;5009684;28;20932;-69
2023/04/30 08:31:10;;;;;;;6.57;6.07;;;16.80;59.70;;;;;;5009791;28;20548;-69
2023/04/30 08:33:37;;;;;;;6.17;5.47;;;16.80;61.40;;;;;;5008416;28;20842;-69
2023/04/30 08:36:06;;;;;;;5.83;3.60;;;16.80;58.60;;;;;;5009608;28;20528;-69
2023/04/30 08:38:36;;;;;;;4.43;4.03;;;16.70;56.90;;;;;;5009790;28;20453;-68
2023/04/30 08:41:09;;;;;;;3.83;3.60;;;16.90;56.90;;;;;;5009995;28;20489;-68
2023/04/30 08:43:36;;;;;;;3.90;3.60;;;17.00;56.50;;;;;;5008338;28;20520;-68
2023/04/30 08:46:04;;;;;;;3.50;3.20;;;17.30;54.80;;;;;;5009382;28;21005;-68
2023/04/30 08:48:32;;;;;;;3.90;3.60;;;17.60;55.00;;;;;;5009474;28;20452;-68
2023/04/30 08:51:01;;;;;;;4.93;3.80;;;17.80;53.50;;;;;;5009663;28;20450;-69
2023/04/30 08:53:30;;;;;;;5.30;4.80;;;17.70;51.30;;;;;;5008713;28;20593;-68
2023/04/30 08:55:57;;;;;;;4.40;4.10;;;17.60;51.90;;;;;;5013068;28;20465;-68
2023/04/30 08:58:24;;;;;;;3.43;3.13;;;17.50;54.80;;;;;;5013219;28;20504;-69
2023/04/30 09:00:51;;;;;;;4.57;4.17;;;17.40;54.30;;;;;;5012984;28;20488;-68
2023/04/30 09:03:18;;;;;;;6.50;4.50;;;17.20;55.90;;;;;;5011974;28;20462;-69
2023/04/30 09:05:45;;;;;;;6.13;5.67;;;17.20;55.60;;;;;;5013122;28;20468;-69
2023/04/30 09:08:20;;;;;;;5.07;4.67;;;17.00;56.20;;;;;;5013151;28;20924;-69
2023/04/30 09:10:50;;;;;;;5.20;4.80;;;17.20;57.30;;;;;;5013027;28;20992;-68
2023/04/30 09:13:21;;;;;;;5.57;5.03;;;17.50;57.30;;;;;;5011853;28;20491;-68
2023/04/30 09:15:52;;;;;;;5.60;5.10;;;17.60;53.80;;;;;;5012761;28;20449;-68
2023/04/30 09:18:20;;;;;;;4.57;4.27;;;17.40;55.00;;;;;;5012982;28;20442;-68
2023/04/30 09:20:56;;;;;;;5.47;5.07;;;17.60;56.80;;;;;;5012806;28;20464;-69
2023/04/30 09:23:23;;;;;;;4.13;3.83;;;17.80;56.20;;;;;;5011455;28;20477;-68
2023/04/30 09:25:51;;;;;;;3.70;3.23;;;17.80;52.00;;;;;;5012726;28;20456;-68
2023/04/30 09:28:22;;;;;;;4.00;3.67;;;18.10;52.10;;;;;;5012469;28;20446;-69
2023/04/30 09:30:50;;;;;;;3.80;3.50;;;18.50;51.80;;;;;;5012978;28;20446;-69
2023/04/30 09:33:17;;;;;;;3.53;3.23;;;18.80;52.60;;;;;;5011980;28;20469;-69
2023/04/30 09:35:44;;;;;;;3.07;2.87;;;18.90;53.70;;;;;;5013438;28;20448;-69
2023/04/30 09:38:26;;;;;;;4.53;4.13;;;18.90;48.10;;;;;;5013254;28;20817;-69
2023/04/30 09:40:55;;;;;;;4.17;3.77;;;18.90;50.20;;;;;;5012592;28;20450;-68
2023/04/30 09:43:21;;;;;;;4.67;4.23;;;18.70;49.10;;;;;;5007129;28;20919;-68
2023/04/30 09:45:50;;;;;;;4.93;4.53;;;18.50;51.20;;;;;;4998927;28;22120;-71
2023/04/30 09:48:17;;;;;;;3.97;3.60;;;18.30;52.70;;;;;;5000194;28;20490;-67
2023/04/30 09:50:46;;;;;;;5.63;3.70;;;18.50;52.90;;;;;;4999363;28;20576;-70
2023/04/30 09:53:13;;;;;;;4.63;4.33;;;18.50;49.30;;;;;;5005052;28;20483;-76
2023/04/30 09:55:43;;;;;;;3.90;3.60;;;18.00;49.90;;;;;;4999112;28;20454;-71
2023/04/30 09:58:13;;;;;;;4.80;4.00;;;17.70;50.70;;;;;;5005118;28;20441;-70
2023/04/30 10:00:41;;;;;;;6.70;3.80;;;17.20;53.20;;;;;;4994665;28;20843;-72
2023/04/30 10:03:09;;;;;;;5.30;3.83;;;17.20;53.20;;;;;;5006254;28;20983;-71
2023/04/30 10:05:39;;;;;;;4.03;3.73;;;16.90;52.50;;;;;;5010279;28;20452;-72
2023/04/30 10:08:10;;;;;;;4.77;4.10;;;17.20;53.90;;;;;;5011392;28;20853;-72
2023/04/30 10:10:40;;;;;;;3.43;2.83;;;17.60;50.60;;;;;;5011529;28;20460;-72
2023/04/30 10:13:14;;;;;;;3.60;3.30;;;18.10;52.20;;;;;;5010245;28;20473;-71
2023/04/30 10:15:48;;;;;;;6.80;4.53;;;18.30;49.20;;;;;;5011473;28;20528;-71
2023/04/30 10:18:19;;;;;;;11.13;4.63;;;17.10;50.90;;;;;;5011293;28;20804;-72
2023/04/30 10:20:50;;;;;;;4.00;3.20;;;17.10;53.20;;;;;;5012047;28;20448;-72
2023/04/30 10:23:17;;;;;;;5.20;3.80;;;17.40;52.20;;;;;;5010726;28;20837;-72
2023/04/30 10:25:45;;;;;;;4.97;4.57;;;17.60;52.40;;;;;;5011860;28;20454;-72
2023/04/30 10:28:13;;;;;;;5.00;4.60;;;17.90;51.30;;;;;;5011649;28;20489;-72
2023/04/30 10:30:41;;;;;;;3.93;3.63;;;17.90;51.80;;;;;;5011550;28;20445;-72
2023/04/30 10:33:18;;;;;;;4.40;3.90;;;18.10;51.60;;;;;;5010303;28;20738;-73
2023/04/30 10:35:49;;;;;;;4.40;4.00;;;18.40;49.00;;;;;;5011548;28;20468;-72
2023/04/30 10:38:23;;;;;;;4.13;3.73;;;18.50;48.60;;;;;;5011536;28;20446;-71
2023/04/30 10:40:50;;;;;;;4.00;3.70;;;18.70;49.00;;;;;;5011329;28;20462;-72
2023/04/30 10:43:20;;;;;;;4.37;3.97;;;18.90;48.90;;;;;;5009996;28;20474;-72
2023/04/30 10:45:48;;;;;;;4.57;4.17;;;19.00;47.60;;;;;;5011268;28;21088;-71
2023/04/30 10:48:22;;;;;;;4.47;4.03;;;19.00;48.00;;;;;;5011330;28;20488;-71
2023/04/30 10:50:51;;;;;;;4.70;4.30;;;19.10;47.00;;;;;;5011203;28;20456;-71
2023/04/30 10:53:20;;;;;;;4.27;3.93;;;19.30;47.90;;;;;;5009810;28;20481;-72
2023/04/30 10:55:52;;;;;;;5.10;4.00;;;19.20;47.50;;;;;;5010942;28;20508;-72
2023/04/30 10:58:29;;;;;;;4.23;3.93;;;19.30;49.10;;;;;;5011286;28;20488;-72
2023/04/30 11:01:01;;;;;;;5.30;4.90;;;19.10;47.90;;;;;;5011059;28;20453;-71
2023/04/30 11:03:29;;;;;;;4.37;3.97;;;19.20;49.20;;;;;;5009896;28;20466;-72
2023/04/30 11:05:57;;;;;;;4.70;4.30;;;19.40;48.70;;;;;;5010793;28;20541;-71
2023/04/30 11:08:33;;;;;;;4.60;4.20;;;19.70;47.00;;;;;;5010990;28;20532;-69
2023/04/30 11:11:02;;;;;;;4.80;4.33;;;19.70;46.60;;;;;;5011005;28;20456;-69
2023/04/30 11:13:39;;;;;;;4.57;4.17;;;19.80;47.20;;;;;;5009488;28;20470;-70
2023/04/30 11:16:07;;;;;;;4.40;4.10;;;19.90;48.00;;;;;;5010717;28;21012;-70
2023/04/30 11:18:34;;;;;;;4.80;4.50;;;20.10;47.10;;;;;;5010532;28;20446;-71
2023/04/30 11:21:02;;;;;;;4.07;3.77;;;20.10;46.70;;;;;;5010867;28;20450;-71
2023/04/30 11:23:29;;;;;;;4.37;3.97;;;20.20;46.70;;;;;;5009554;28;20458;-71
2023/04/30 11:25:59;;;;;;;4.30;4.00;;;20.40;46.20;;;;;;5010623;28;20477;-71
2023/04/30 11:28:27;;;;;;;4.90;4.60;;;20.50;45.50;;;;;;5010377;28;20477;-70
2023/04/30 11:30:56;;;;;;;4.67;4.17;;;20.40;47.40;;;;;;5010721;28;20453;-71
2023/04/30 11:33:25;;;;;;;5.27;4.87;;;20.30;47.60;;;;;;5009324;28;20469;-71
2023/04/30 11:35:54;;;;;;;4.63;4.23;;;20.20;46.90;;;;;;5010797;28;20461;-71
2023/04/30 11:38:25;;;;;;;4.27;3.87;;;20.30;46.20;;;;;;5010546;28;20932;-71
2023/04/30 11:40:53;;;;;;;4.20;3.90;;;20.20;46.10;;;;;;5010518;28;21083;-71
2023/04/30 11:43:24;;;;;;;4.20;3.90;;;20.70;47.20;;;;;;5009065;28;20462;-72
2023/04/30 11:46:07;;;;;;;4.60;4.20;;;20.80;47.20;;;;;;5010813;28;20452;-72
2023/04/30 11:48:36;;;;;;;4.57;4.17;;;20.70;46.50;;;;;;5010669;28;20936;-71
2023/04/30 11:51:14;;;;;;;4.50;4.13;;;20.90;45.80;;;;;;5010763;28;20482;-72
2023/04/30 11:53:41;;;;;;;3.40;3.20;;;21.10;46.70;;;;;;5009732;28;20466;-71
2023/04/30 11:56:08;;;;;;;4.00;3.70;;;21.50;45.30;;;;;;5010714;28;20952;-71
2023/04/30 11:58:36;;;;;;;4.07;3.60;;;21.80;44.70;;;;;;5010709;28;20820;-73
2023/04/30 12:01:05;;;;;;;4.07;3.77;;;21.70;43.30;;;;;;5010451;28;20512;-71
2023/04/30 12:03:32;;;;;;;4.27;3.97;;;21.20;45.80;;;;;;5009108;28;20561;-72
2023/04/30 12:06:00;;;;;;;4.27;3.87;;;20.50;45.50;;;;;;5010151;28;20441;-72
2023/04/30 12:08:27;;;;;;;4.00;3.70;;;20.00;44.60;;;;;;5009985;28;20543;-72
2023/04/30 12:10:54;;;;;;;4.70;4.40;;;19.70;45.40;;;;;;5010284;28;20454;-71
2023/04/30 12:13:21;;;;;;;5.07;4.60;;;19.80;47.00;;;;;;5009145;28;20474;-71
2023/04/30 12:15:59;;;;;;;3.70;3.40;;;19.80;48.50;;;;;;5010222;28;20458;-71
2023/04/30 12:18:27;;;;;;;4.43;4.03;;;19.80;47.30;;;;;;5010391;28;20469;-71
2023/04/30 12:20:54;;;;;;;3.90;3.60;;;19.60;45.30;;;;;;5010296;28;20449;-71
2023/04/30 12:23:21;;;;;;;4.50;4.10;;;19.60;47.50;;;;;;5008425;28;20478;-71
2023/04/30 12:25:48;;;;;;;4.47;4.17;;;19.70;45.40;;;;;;5010020;28;20473;-71
2023/04/30 12:28:15;;;;;;;4.13;3.83;;;19.90;45.30;;;;;;5009845;28;20493;-71
2023/04/30 12:30:43;;;;;;;3.90;3.50;;;19.80;45.60;;;;;;5013884;28;20460;-71
2023/04/30 12:33:11;;;;;;;3.93;3.63;;;18.80;47.10;;;;;;5012625;28;21191;-71
2023/04/30 12:35:43;;;;;;;3.87;3.57;;;19.00;50.10;;;;;;5013757;28;20453;-71
2023/04/30 12:38:10;;;;;;;3.83;3.60;;;19.50;50.40;;;;;;5013657;28;20528;-71
2023/04/30 12:40:37;;;;;;;3.20;3.00;;;19.70;46.80;;;;;;5013483;28;20457;-71
2023/04/30 12:43:05;;;;;;;3.33;3.13;;;19.50;47.20;;;;;;5012403;28;20480;-72